sensor_id;sensor_type;location;lat;lon;timestamp;P1;P2;P0
69746;PMS7003;57018;50.278;19.134;2023-12-20T00:02:22;12.50;10.00;8.00
69746;PMS7003;57018;50.278;19.134;2023-12-20T00:04:52;12.00;12.00;6.00
69746;PMS7003;57018;50.278;19.134;2023-12-20T00:07:22;14.00;13.00;9.00
69746;PMS7003;57018;50.278;19.134;2023-12-20T00:09:54;19.00;11.00;10.00
69746;PMS7003;57018;50.278;19.134;2023-12-20T00:12:24;16.50;12.50;8.00
69746;PMS7003;57018;50.278;19.134;2023-12-20T00:14:53;14.00;13.33;10.00
69746;PMS7003;57018;50.278;19.134;2023-12-20T00:17:24;13.00;12.00;8.00
69746;PMS7003;57018;50.278;19.134;2023-12-20T00:19:56;13.00;12.00;8.00
69746;PMS7003;57018;50.278;19.134;2023-12-20T00:22:26;12.00;12.00;9.00
69746;PMS7003;57018;50.278;19.134;2023-12-20T00:24:55;13.00;12.00;9.00
69746;PMS7003;57018;50.278;19.134;2023-12-20T00:27:25;15.50;13.50;9.00
69746;PMS7003;57018;50.278;19.134;2023-12-20T00:32:24;17.00;12.00;9.50
69746;PMS7003;57018;50.278;19.134;2023-12-20T00:34:54;12.00;12.00;9.00
69746;PMS7003;57018;50.278;19.134;2023-12-20T00:37:23;13.00;12.67;8.67
69746;PMS7003;57018;50.278;19.134;2023-12-20T00:39:53;16.00;11.00;8.00
69746;PMS7003;57018;50.278;19.134;2023-12-20T00:42:25;12.67;12.33;9.00
69746;PMS7003;57018;50.278;19.134;2023-12-20T00:44:55;12.00;12.00;9.00
69746;PMS7003;57018;50.278;19.134;2023-12-20T00:47:26;14.50;13.50;9.00
69746;PMS7003;57018;50.278;19.134;2023-12-20T00:49:56;16.00;13.50;7.50
69746;PMS7003;57018;50.278;19.134;2023-12-20T00:52:26;13.00;12.00;9.00
69746;PMS7003;57018;50.278;19.134;2023-12-20T00:54:56;19.00;12.00;9.00
69746;PMS7003;57018;50.278;19.134;2023-12-20T00:57:26;11.00;9.50;7.50
69746;PMS7003;57018;50.278;19.134;2023-12-20T00:59:56;12.00;12.00;8.33
69746;PMS7003;57018;50.278;19.134;2023-12-20T01:02:26;11.00;11.00;7.00
69746;PMS7003;57018;50.278;19.134;2023-12-20T01:04:55;14.00;9.50;8.00
69746;PMS7003;57018;50.278;19.134;2023-12-20T01:07:25;11.50;11.50;8.00
69746;PMS7003;57018;50.278;19.134;2023-12-20T01:09:55;12.00;10.00;7.50
69746;PMS7003;57018;50.278;19.134;2023-12-20T01:12:27;14.00;11.00;9.33
69746;PMS7003;57018;50.278;19.134;2023-12-20T01:14:57;10.00;10.00;6.50
69746;PMS7003;57018;50.278;19.134;2023-12-20T01:17:27;11.00;11.00;9.00
69746;PMS7003;57018;50.278;19.134;2023-12-20T01:19:57;12.00;12.00;9.00
69746;PMS7003;57018;50.278;19.134;2023-12-20T01:22:27;12.00;12.00;9.00
69746;PMS7003;57018;50.278;19.134;2023-12-20T01:24:57;11.50;9.50;7.00
69746;PMS7003;57018;50.278;19.134;2023-12-20T01:27:29;10.50;10.00;8.00
69746;PMS7003;57018;50.278;19.134;2023-12-20T01:30:01;10.00;10.00;7.67
69746;PMS7003;57018;50.278;19.134;2023-12-20T01:32:32;12.00;12.00;8.00
69746;PMS7003;57018;50.278;19.134;2023-12-20T01:35:03;11.00;11.00;8.00
69746;PMS7003;57018;50.278;19.134;2023-12-20T01:37:33;6.00;6.00;4.00
69746;PMS7003;57018;50.278;19.134;2023-12-20T01:40:04;11.00;10.00;7.00
69746;PMS7003;57018;50.278;19.134;2023-12-20T01:42:35;11.00;10.00;8.00
69746;PMS7003;57018;50.278;19.134;2023-12-20T01:45:06;11.00;10.00;8.00
69746;PMS7003;57018;50.278;19.134;2023-12-20T01:47:37;9.00;9.00;6.50
69746;PMS7003;57018;50.278;19.134;2023-12-20T01:50:08;10.00;9.00;6.00
69746;PMS7003;57018;50.278;19.134;2023-12-20T01:52:38;11.00;11.00;8.33
69746;PMS7003;57018;50.278;19.134;2023-12-20T01:55:09;9.67;8.00;5.00
69746;PMS7003;57018;50.278;19.134;2023-12-20T01:57:41;10.50;10.00;6.00
69746;PMS7003;57018;50.278;19.134;2023-12-20T02:00:14;13.00;13.00;8.50
69746;PMS7003;57018;50.278;19.134;2023-12-20T02:02:47;14.50;11.50;9.00
69746;PMS7003;57018;50.278;19.134;2023-12-20T02:05:18;11.00;11.00;8.50
69746;PMS7003;57018;50.278;19.134;2023-12-20T02:07:49;15.50;13.50;9.50
69746;PMS7003;57018;50.278;19.134;2023-12-20T02:10:19;14.00;12.50;9.00
69746;PMS7003;57018;50.278;19.134;2023-12-20T02:12:49;13.00;12.00;9.00
69746;PMS7003;57018;50.278;19.134;2023-12-20T02:15:19;11.00;11.00;10.00
69746;PMS7003;57018;50.278;19.134;2023-12-20T02:17:49;11.50;10.50;6.00
69746;PMS7003;57018;50.278;19.134;2023-12-20T02:20:19;19.00;16.50;10.00
69746;PMS7003;57018;50.278;19.134;2023-12-20T02:22:49;13.00;11.00;8.00
69746;PMS7003;57018;50.278;19.134;2023-12-20T02:25:19;16.00;14.00;10.00
69746;PMS7003;57018;50.278;19.134;2023-12-20T02:27:49;11.00;11.00;8.50
69746;PMS7003;57018;50.278;19.134;2023-12-20T02:32:48;12.00;10.00;8.00
69746;PMS7003;57018;50.278;19.134;2023-12-20T02:35:20;13.00;13.00;9.67
69746;PMS7003;57018;50.278;19.134;2023-12-20T02:40:21;17.00;15.00;10.00
69746;PMS7003;57018;50.278;19.134;2023-12-20T02:42:50;9.00;9.00;5.00
69746;PMS7003;57018;50.278;19.134;2023-12-20T02:45:20;11.00;11.00;8.00
69746;PMS7003;57018;50.278;19.134;2023-12-20T02:47:50;12.00;11.00;9.00
69746;PMS7003;57018;50.278;19.134;2023-12-20T02:50:20;15.50;11.50;10.00
69746;PMS7003;57018;50.278;19.134;2023-12-20T02:52:50;11.00;10.00;9.00
69746;PMS7003;57018;50.278;19.134;2023-12-20T02:55:20;12.00;12.00;10.00
69746;PMS7003;57018;50.278;19.134;2023-12-20T02:57:50;16.00;12.00;9.00
69746;PMS7003;57018;50.278;19.134;2023-12-20T03:00:20;13.00;13.00;9.00
69746;PMS7003;57018;50.278;19.134;2023-12-20T03:02:49;13.33;12.00;9.00
69746;PMS7003;57018;50.278;19.134;2023-12-20T03:05:22;11.00;10.00;6.00
69746;PMS7003;57018;50.278;19.134;2023-12-20T03:07:52;15.00;15.00;11.00
69746;PMS7003;57018;50.278;19.134;2023-12-20T03:10:21;13.00;12.00;10.00
69746;PMS7003;57018;50.278;19.134;2023-12-20T03:12:51;13.00;13.00;11.00
69746;PMS7003;57018;50.278;19.134;2023-12-20T03:15:21;16.00;13.00;10.00
69746;PMS7003;57018;50.278;19.134;2023-12-20T03:17:51;16.00;12.50;8.50
69746;PMS7003;57018;50.278;19.134;2023-12-20T03:20:21;14.50;12.00;10.00
69746;PMS7003;57018;50.278;19.134;2023-12-20T03:22:52;12.00;12.00;9.00
69746;PMS7003;57018;50.278;19.134;2023-12-20T03:25:22;14.00;11.00;8.00
69746;PMS7003;57018;50.278;19.134;2023-12-20T03:27:52;10.50;9.50;8.50
69746;PMS7003;57018;50.278;19.134;2023-12-20T03:30:22;11.00;10.00;9.00
69746;PMS7003;57018;50.278;19.134;2023-12-20T03:32:52;13.50;13.00;9.50
69746;PMS7003;57018;50.278;19.134;2023-12-20T03:35:22;17.00;15.00;11.00
69746;PMS7003;57018;50.278;19.134;2023-12-20T03:37:52;14.00;13.00;10.00
69746;PMS7003;57018;50.278;19.134;2023-12-20T03:40:21;16.50;15.00;11.00
69746;PMS7003;57018;50.278;19.134;2023-12-20T03:42:51;18.00;16.00;11.00
69746;PMS7003;57018;50.278;19.134;2023-12-20T03:45:21;17.50;16.50;10.50
69746;PMS7003;57018;50.278;19.134;2023-12-20T03:47:51;15.00;15.00;9.00
69746;PMS7003;57018;50.278;19.134;2023-12-20T03:50:23;21.33;17.00;10.67
69746;PMS7003;57018;50.278;19.134;2023-12-20T03:52:53;15.50;13.50;9.00
69746;PMS7003;57018;50.278;19.134;2023-12-20T03:55:23;21.00;17.00;11.00
69746;PMS7003;57018;50.278;19.134;2023-12-20T03:57:53;20.00;16.00;11.00
69746;PMS7003;57018;50.278;19.134;2023-12-20T04:00:23;13.00;13.00;9.00
69746;PMS7003;57018;50.278;19.134;2023-12-20T04:02:55;15.00;14.00;10.00
69746;PMS7003;57018;50.278;19.134;2023-12-20T04:05:25;17.00;17.00;10.00
69746;PMS7003;57018;50.278;19.134;2023-12-20T04:07:55;14.00;14.00;11.50
69746;PMS7003;57018;50.278;19.134;2023-12-20T04:10:25;18.50;14.00;11.50
69746;PMS7003;57018;50.278;19.134;2023-12-20T04:12:55;19.50;16.50;13.50
69746;PMS7003;57018;50.278;19.134;2023-12-20T04:15:25;20.00;19.00;14.00
69746;PMS7003;57018;50.278;19.134;2023-12-20T04:17:57;24.50;20.50;14.00
69746;PMS7003;57018;50.278;19.134;2023-12-20T04:20:26;25.00;19.00;12.00
69746;PMS7003;57018;50.278;19.134;2023-12-20T04:22:59;20.00;19.00;13.00
69746;PMS7003;57018;50.278;19.134;2023-12-20T04:25:29;23.00;23.00;15.50
69746;PMS7003;57018;50.278;19.134;2023-12-20T04:27:59;20.00;19.00;12.00
69746;PMS7003;57018;50.278;19.134;2023-12-20T04:30:31;20.00;20.00;14.00
69746;PMS7003;57018;50.278;19.134;2023-12-20T04:33:00;19.00;18.00;13.00
69746;PMS7003;57018;50.278;19.134;2023-12-20T04:35:30;25.00;24.75;16.25
69746;PMS7003;57018;50.278;19.134;2023-12-20T04:38:07;26.00;24.00;16.00
69746;PMS7003;57018;50.278;19.134;2023-12-20T04:40:37;25.00;25.00;17.00
69746;PMS7003;57018;50.278;19.134;2023-12-20T04:43:10;24.00;21.00;16.00
69746;PMS7003;57018;50.278;19.134;2023-12-20T04:45:40;24.00;22.00;15.00
69746;PMS7003;57018;50.278;19.134;2023-12-20T04:48:10;28.75;28.75;18.50
69746;PMS7003;57018;50.278;19.134;2023-12-20T04:50:40;22.00;21.00;16.00
69746;PMS7003;57018;50.278;19.134;2023-12-20T04:53:11;29.00;25.00;17.00
69746;PMS7003;57018;50.278;19.134;2023-12-20T04:55:41;25.00;23.00;15.00
69746;PMS7003;57018;50.278;19.134;2023-12-20T04:58:11;28.00;23.00;16.00
69746;PMS7003;57018;50.278;19.134;2023-12-20T05:00:41;32.00;25.00;18.00
69746;PMS7003;57018;50.278;19.134;2023-12-20T05:03:13;30.00;26.00;19.00
69746;PMS7003;57018;50.278;19.134;2023-12-20T05:05:43;35.00;31.00;19.00
69746;PMS7003;57018;50.278;19.134;2023-12-20T05:08:13;31.00;27.50;18.00
69746;PMS7003;57018;50.278;19.134;2023-12-20T05:10:43;35.00;34.00;23.00
69746;PMS7003;57018;50.278;19.134;2023-12-20T05:13:13;37.50;35.00;23.50
69746;PMS7003;57018;50.278;19.134;2023-12-20T05:15:45;39.00;34.00;20.00
69746;PMS7003;57018;50.278;19.134;2023-12-20T05:18:15;29.33;27.00;19.67
69746;PMS7003;57018;50.278;19.134;2023-12-20T05:20:44;25.00;23.00;16.00
69746;PMS7003;57018;50.278;19.134;2023-12-20T05:23:15;24.00;23.33;14.33
69746;PMS7003;57018;50.278;19.134;2023-12-20T05:25:45;32.00;25.00;17.00
69746;PMS7003;57018;50.278;19.134;2023-12-20T05:28:15;23.50;21.50;14.50
69746;PMS7003;57018;50.278;19.134;2023-12-20T05:30:45;28.50;24.50;16.50
69746;PMS7003;57018;50.278;19.134;2023-12-20T05:33:15;22.00;22.00;14.50
69746;PMS7003;57018;50.278;19.134;2023-12-20T05:35:46;24.00;23.00;17.00
69746;PMS7003;57018;50.278;19.134;2023-12-20T05:38:16;27.00;22.50;17.00
69746;PMS7003;57018;50.278;19.134;2023-12-20T05:43:14;28.50;23.25;14.00
69746;PMS7003;57018;50.278;19.134;2023-12-20T05:45:43;29.00;28.00;18.50
69746;PMS7003;57018;50.278;19.134;2023-12-20T05:48:13;33.00;23.00;16.00
69746;PMS7003;57018;50.278;19.134;2023-12-20T05:50:43;32.00;25.00;17.00
69746;PMS7003;57018;50.278;19.134;2023-12-20T05:53:13;24.00;24.00;15.33
69746;PMS7003;57018;50.278;19.134;2023-12-20T05:55:43;27.00;27.00;18.00
69746;PMS7003;57018;50.278;19.134;2023-12-20T05:58:13;23.50;22.50;13.00
69746;PMS7003;57018;50.278;19.134;2023-12-20T06:00:42;28.00;24.00;19.00
69746;PMS7003;57018;50.278;19.134;2023-12-20T06:03:15;37.00;30.00;20.00
69746;PMS7003;57018;50.278;19.134;2023-12-20T06:05:45;28.00;25.00;17.50
69746;PMS7003;57018;50.278;19.134;2023-12-20T06:08:15;31.50;29.50;21.50
69746;PMS7003;57018;50.278;19.134;2023-12-20T06:10:46;34.00;29.00;20.00
69746;PMS7003;57018;50.278;19.134;2023-12-20T06:13:19;36.33;33.67;22.67
69746;PMS7003;57018;50.278;19.134;2023-12-20T06:15:49;40.00;32.50;21.00
69746;PMS7003;57018;50.278;19.134;2023-12-20T06:18:19;35.00;33.00;23.00
69746;PMS7003;57018;50.278;19.134;2023-12-20T06:20:49;30.67;27.33;19.33
69746;PMS7003;57018;50.278;19.134;2023-12-20T06:23:18;33.50;32.00;22.00
69746;PMS7003;57018;50.278;19.134;2023-12-20T06:25:49;35.00;33.00;23.00
69746;PMS7003;57018;50.278;19.134;2023-12-20T06:28:21;36.00;31.00;22.00
69746;PMS7003;57018;50.278;19.134;2023-12-20T06:30:51;35.50;31.50;22.50
69746;PMS7003;57018;50.278;19.134;2023-12-20T06:33:24;41.00;35.00;23.00
69746;PMS7003;57018;50.278;19.134;2023-12-20T06:35:54;35.00;30.00;18.00
69746;PMS7003;57018;50.278;19.134;2023-12-20T06:38:24;34.00;33.00;23.00
69746;PMS7003;57018;50.278;19.134;2023-12-20T06:40:54;32.00;28.00;23.00
69746;PMS7003;57018;50.278;19.134;2023-12-20T06:43:25;39.00;35.00;23.50
69746;PMS7003;57018;50.278;19.134;2023-12-20T06:45:56;32.00;28.00;21.00
69746;PMS7003;57018;50.278;19.134;2023-12-20T06:48:26;33.50;33.00;21.50
69746;PMS7003;57018;50.278;19.134;2023-12-20T06:50:56;31.00;29.00;18.50
69746;PMS7003;57018;50.278;19.134;2023-12-20T06:53:27;40.33;34.67;23.33
69746;PMS7003;57018;50.278;19.134;2023-12-20T06:55:57;41.00;37.00;25.00
69746;PMS7003;57018;50.278;19.134;2023-12-20T06:58:27;33.50;32.50;22.00
69746;PMS7003;57018;50.278;19.134;2023-12-20T07:00:57;40.00;35.50;22.50
69746;PMS7003;57018;50.278;19.134;2023-12-20T07:03:27;36.50;31.50;22.00
69746;PMS7003;57018;50.278;19.134;2023-12-20T07:05:56;39.50;33.50;23.50
69746;PMS7003;57018;50.278;19.134;2023-12-20T07:08:30;30.00;27.00;22.00
69746;PMS7003;57018;50.278;19.134;2023-12-20T07:11:00;39.00;31.00;20.00
69746;PMS7003;57018;50.278;19.134;2023-12-20T07:13:30;33.00;29.00;22.00
69746;PMS7003;57018;50.278;19.134;2023-12-20T07:16:00;34.50;28.75;18.75
69746;PMS7003;57018;50.278;19.134;2023-12-20T07:18:31;30.00;28.00;18.00
69746;PMS7003;57018;50.278;19.134;2023-12-20T07:21:01;32.33;29.67;20.67
69746;PMS7003;57018;50.278;19.134;2023-12-20T07:23:31;36.00;33.00;23.00
69746;PMS7003;57018;50.278;19.134;2023-12-20T07:26:01;38.00;31.00;20.00
69746;PMS7003;57018;50.278;19.134;2023-12-20T07:28:32;36.00;32.25;21.25
69746;PMS7003;57018;50.278;19.134;2023-12-20T07:31:02;37.00;31.00;21.00
69746;PMS7003;57018;50.278;19.134;2023-12-20T07:33:32;41.00;27.00;19.00
69746;PMS7003;57018;50.278;19.134;2023-12-20T07:36:02;35.00;31.00;22.00
69746;PMS7003;57018;50.278;19.134;2023-12-20T07:38:33;34.00;33.00;17.00
69746;PMS7003;57018;50.278;19.134;2023-12-20T07:41:03;41.00;36.50;25.00
69746;PMS7003;57018;50.278;19.134;2023-12-20T07:43:33;39.00;36.00;25.00
69746;PMS7003;57018;50.278;19.134;2023-12-20T07:46:07;39.50;34.50;19.00
69746;PMS7003;57018;50.278;19.134;2023-12-20T07:48:37;33.00;31.00;19.00
69746;PMS7003;57018;50.278;19.134;2023-12-20T07:51:08;38.50;33.00;22.50
69746;PMS7003;57018;50.278;19.134;2023-12-20T07:53:38;33.50;31.50;20.00
69746;PMS7003;57018;50.278;19.134;2023-12-20T07:56:17;37.00;36.00;24.00
69746;PMS7003;57018;50.278;19.134;2023-12-20T07:58:48;39.33;35.33;23.33
69746;PMS7003;57018;50.278;19.134;2023-12-20T08:01:18;37.00;36.00;24.00
69746;PMS7003;57018;50.278;19.134;2023-12-20T08:03:48;40.00;36.00;24.00
69746;PMS7003;57018;50.278;19.134;2023-12-20T08:06:18;44.00;38.00;24.00
69746;PMS7003;57018;50.278;19.134;2023-12-20T08:08:49;42.00;37.00;22.00
69746;PMS7003;57018;50.278;19.134;2023-12-20T08:11:19;47.00;39.00;24.00
69746;PMS7003;57018;50.278;19.134;2023-12-20T08:13:49;38.00;35.33;21.00
69746;PMS7003;57018;50.278;19.134;2023-12-20T08:16:19;39.00;35.00;21.00
69746;PMS7003;57018;50.278;19.134;2023-12-20T08:18:50;42.00;38.00;24.00
69746;PMS7003;57018;50.278;19.134;2023-12-20T08:21:20;47.00;40.50;26.50
69746;PMS7003;57018;50.278;19.134;2023-12-20T08:23:50;37.00;36.00;24.00
69746;PMS7003;57018;50.278;19.134;2023-12-20T08:26:20;43.00;37.50;27.00
69746;PMS7003;57018;50.278;19.134;2023-12-20T08:28:51;33.00;33.00;22.00
69746;PMS7003;57018;50.278;19.134;2023-12-20T08:31:21;42.50;38.50;26.00
69746;PMS7003;57018;50.278;19.134;2023-12-20T08:33:51;39.00;35.33;24.67
69746;PMS7003;57018;50.278;19.134;2023-12-20T08:36:21;46.50;39.00;22.00
69746;PMS7003;57018;50.278;19.134;2023-12-20T08:38:51;50.00;41.00;27.00
69746;PMS7003;57018;50.278;19.134;2023-12-20T08:41:22;45.00;39.00;25.00
69746;PMS7003;57018;50.278;19.134;2023-12-20T08:43:52;38.00;36.00;24.00
69746;PMS7003;57018;50.278;19.134;2023-12-20T08:46:22;49.50;41.00;24.50
69746;PMS7003;57018;50.278;19.134;2023-12-20T08:48:54;42.00;38.00;27.00
69746;PMS7003;57018;50.278;19.134;2023-12-20T08:51:24;42.00;37.50;24.00
69746;PMS7003;57018;50.278;19.134;2023-12-20T08:53:56;47.50;41.50;25.00
69746;PMS7003;57018;50.278;19.134;2023-12-20T08:56:26;30.00;28.00;19.00
69746;PMS7003;57018;50.278;19.134;2023-12-20T08:58:55;33.00;30.00;18.00
69746;PMS7003;57018;50.278;19.134;2023-12-20T09:01:25;36.00;32.00;22.00
69746;PMS7003;57018;50.278;19.134;2023-12-20T09:03:55;37.00;37.00;24.00
69746;PMS7003;57018;50.278;19.134;2023-12-20T09:06:25;44.50;36.00;23.00
69746;PMS7003;57018;50.278;19.134;2023-12-20T09:08:57;44.00;39.00;24.00
69746;PMS7003;57018;50.278;19.134;2023-12-20T09:11:27;44.50;37.00;25.00
69746;PMS7003;57018;50.278;19.134;2023-12-20T09:13:57;45.00;37.00;24.00
69746;PMS7003;57018;50.278;19.134;2023-12-20T09:16:27;33.50;29.00;12.50
69746;PMS7003;57018;50.278;19.134;2023-12-20T09:18:58;43.50;36.50;23.50
69746;PMS7003;57018;50.278;19.134;2023-12-20T09:21:28;52.50;38.50;24.00
69746;PMS7003;57018;50.278;19.134;2023-12-20T09:23:58;45.50;39.00;24.00
69746;PMS7003;57018;50.278;19.134;2023-12-20T09:26:28;39.00;36.00;22.00
69746;PMS7003;57018;50.278;19.134;2023-12-20T09:28:58;38.50;34.00;23.50
69746;PMS7003;57018;50.278;19.134;2023-12-20T09:31:27;33.00;33.00;22.50
69746;PMS7003;57018;50.278;19.134;2023-12-20T09:33:57;44.50;39.00;22.50
69746;PMS7003;57018;50.278;19.134;2023-12-20T09:36:27;41.50;35.00;24.00
69746;PMS7003;57018;50.278;19.134;2023-12-20T09:38:58;41.00;34.00;24.50
69746;PMS7003;57018;50.278;19.134;2023-12-20T09:41:28;34.00;33.00;24.00
69746;PMS7003;57018;50.278;19.134;2023-12-20T09:44:05;36.00;33.00;22.00
69746;PMS7003;57018;50.278;19.134;2023-12-20T09:46:38;27.00;22.00;11.00
69746;PMS7003;57018;50.278;19.134;2023-12-20T09:49:17;38.50;36.00;26.50
69746;PMS7003;57018;50.278;19.134;2023-12-20T09:51:49;38.00;36.00;25.00
69746;PMS7003;57018;50.278;19.134;2023-12-20T09:54:21;27.00;23.00;20.00
69746;PMS7003;57018;50.278;19.134;2023-12-20T09:56:51;40.00;33.00;24.00
69746;PMS7003;57018;50.278;19.134;2023-12-20T09:59:24;36.00;35.50;23.50
69746;PMS7003;57018;50.278;19.134;2023-12-20T10:01:54;41.00;36.00;20.00
69746;PMS7003;57018;50.278;19.134;2023-12-20T10:04:25;36.50;33.50;21.00
69746;PMS7003;57018;50.278;19.134;2023-12-20T10:06:55;39.00;37.00;24.00
69746;PMS7003;57018;50.278;19.134;2023-12-20T10:09:32;44.50;37.00;24.00
69746;PMS7003;57018;50.278;19.134;2023-12-20T10:12:03;38.00;35.50;22.50
69746;PMS7003;57018;50.278;19.134;2023-12-20T10:14:34;39.00;37.00;24.00
69746;PMS7003;57018;50.278;19.134;2023-12-20T10:17:04;34.00;34.00;20.00
69746;PMS7003;57018;50.278;19.134;2023-12-20T10:19:35;50.00;40.00;24.50
69746;PMS7003;57018;50.278;19.134;2023-12-20T10:22:05;54.33;41.00;27.33
69746;PMS7003;57018;50.278;19.134;2023-12-20T10:24:35;43.00;38.00;22.00
69746;PMS7003;57018;50.278;19.134;2023-12-20T10:27:06;51.00;41.00;27.00
69746;PMS7003;57018;50.278;19.134;2023-12-20T10:29:38;54.00;42.00;28.00
69746;PMS7003;57018;50.278;19.134;2023-12-20T10:32:22;46.00;39.00;27.00
69746;PMS7003;57018;50.278;19.134;2023-12-20T10:34:54;44.50;37.00;24.00
69746;PMS7003;57018;50.278;19.134;2023-12-20T10:37:26;58.67;43.67;28.00
69746;PMS7003;57018;50.278;19.134;2023-12-20T10:39:56;43.33;37.33;24.00
69746;PMS7003;57018;50.278;19.134;2023-12-20T10:42:31;46.00;39.33;25.00
69746;PMS7003;57018;50.278;19.134;2023-12-20T10:45:05;50.00;43.00;27.00
69746;PMS7003;57018;50.278;19.134;2023-12-20T10:47:35;47.00;40.00;28.00
69746;PMS7003;57018;50.278;19.134;2023-12-20T10:50:08;56.00;43.00;28.00
69746;PMS7003;57018;50.278;19.134;2023-12-20T10:52:38;50.00;40.00;26.50
69746;PMS7003;57018;50.278;19.134;2023-12-20T10:55:10;47.00;40.00;27.00
69746;PMS7003;57018;50.278;19.134;2023-12-20T10:57:41;43.00;36.00;25.00
69746;PMS7003;57018;50.278;19.134;2023-12-20T11:00:18;56.50;43.50;27.50
69746;PMS7003;57018;50.278;19.134;2023-12-20T11:02:49;33.00;33.00;22.00
69746;PMS7003;57018;50.278;19.134;2023-12-20T11:05:22;47.00;40.00;26.00
69746;PMS7003;57018;50.278;19.134;2023-12-20T11:08:01;46.00;40.00;27.00
69746;PMS7003;57018;50.278;19.134;2023-12-20T11:10:39;43.50;38.00;24.00
69746;PMS7003;57018;50.278;19.134;2023-12-20T11:13:20;44.00;39.00;24.50
69746;PMS7003;57018;50.278;19.134;2023-12-20T11:15:54;46.00;39.00;25.00
69746;PMS7003;57018;50.278;19.134;2023-12-20T11:18:29;42.50;35.50;24.00
69746;PMS7003;57018;50.278;19.134;2023-12-20T11:21:02;48.00;43.00;26.50
69746;PMS7003;57018;50.278;19.134;2023-12-20T11:23:33;46.00;40.00;25.00
69746;PMS7003;57018;50.278;19.134;2023-12-20T11:26:03;48.00;39.00;25.00
69746;PMS7003;57018;50.278;19.134;2023-12-20T11:28:33;43.00;37.00;25.00
69746;PMS7003;57018;50.278;19.134;2023-12-20T11:31:03;45.00;36.00;21.00
69746;PMS7003;57018;50.278;19.134;2023-12-20T11:33:35;48.00;40.50;26.50
69746;PMS7003;57018;50.278;19.134;2023-12-20T11:36:12;37.00;36.00;21.00
69746;PMS7003;57018;50.278;19.134;2023-12-20T11:38:55;42.50;34.50;21.00
69746;PMS7003;57018;50.278;19.134;2023-12-20T11:41:29;38.00;34.00;24.00
69746;PMS7003;57018;50.278;19.134;2023-12-20T11:44:00;32.00;24.00;15.00
69746;PMS7003;57018;50.278;19.134;2023-12-20T11:46:32;35.50;31.00;19.50
69746;PMS7003;57018;50.278;19.134;2023-12-20T11:49:02;33.50;30.50;21.00
69746;PMS7003;57018;50.278;19.134;2023-12-20T11:54:00;37.00;31.00;20.00
69746;PMS7003;57018;50.278;19.134;2023-12-20T11:56:30;47.00;40.00;28.00
69746;PMS7003;57018;50.278;19.134;2023-12-20T11:59:00;48.50;38.50;26.50
69746;PMS7003;57018;50.278;19.134;2023-12-20T12:01:31;57.00;46.50;29.00
69746;PMS7003;57018;50.278;19.134;2023-12-20T12:04:04;42.00;36.00;20.00
69746;PMS7003;57018;50.278;19.134;2023-12-20T12:06:37;32.00;26.00;20.00
69746;PMS7003;57018;50.278;19.134;2023-12-20T12:09:06;39.00;36.00;23.00
69746;PMS7003;57018;50.278;19.134;2023-12-20T12:11:37;35.00;35.00;23.00
69746;PMS7003;57018;50.278;19.134;2023-12-20T12:14:08;50.00;39.00;26.00
69746;PMS7003;57018;50.278;19.134;2023-12-20T12:16:38;45.00;41.00;26.00
69746;PMS7003;57018;50.278;19.134;2023-12-20T12:19:10;40.67;38.00;25.33
69746;PMS7003;57018;50.278;19.134;2023-12-20T12:21:50;29.00;25.00;17.00
69746;PMS7003;57018;50.278;19.134;2023-12-20T12:24:32;36.00;31.00;21.00
69746;PMS7003;57018;50.278;19.134;2023-12-20T12:27:02;38.50;36.00;22.00
69746;PMS7003;57018;50.278;19.134;2023-12-20T12:29:33;36.00;36.00;22.00
69746;PMS7003;57018;50.278;19.134;2023-12-20T12:32:05;36.00;29.50;20.00
69746;PMS7003;57018;50.278;19.134;2023-12-20T12:34:36;41.00;33.50;23.00
69746;PMS7003;57018;50.278;19.134;2023-12-20T12:37:07;36.50;35.50;25.50
69746;PMS7003;57018;50.278;19.134;2023-12-20T12:39:40;45.00;38.00;25.00
69746;PMS7003;57018;50.278;19.134;2023-12-20T12:42:10;49.00;39.33;24.33
69746;PMS7003;57018;50.278;19.134;2023-12-20T12:44:40;45.00;39.00;25.00
69746;PMS7003;57018;50.278;19.134;2023-12-20T12:47:10;38.00;32.00;19.00
69746;PMS7003;57018;50.278;19.134;2023-12-20T12:49:41;39.00;36.25;25.00
69746;PMS7003;57018;50.278;19.134;2023-12-20T12:52:11;48.00;39.50;24.00
69746;PMS7003;57018;50.278;19.134;2023-12-20T12:54:44;40.00;37.00;23.50
69746;PMS7003;57018;50.278;19.134;2023-12-20T12:57:14;40.50;35.50;23.50
69746;PMS7003;57018;50.278;19.134;2023-12-20T12:59:45;48.00;39.00;24.00
69746;PMS7003;57018;50.278;19.134;2023-12-20T13:02:15;39.67;36.67;23.67
69746;PMS7003;57018;50.278;19.134;2023-12-20T13:04:45;50.00;40.00;25.00
69746;PMS7003;57018;50.278;19.134;2023-12-20T13:07:15;52.00;43.00;26.00
69746;PMS7003;57018;50.278;19.134;2023-12-20T13:09:45;53.50;41.50;27.00
69746;PMS7003;57018;50.278;19.134;2023-12-20T13:12:15;47.00;38.00;27.00
69746;PMS7003;57018;50.278;19.134;2023-12-20T13:14:46;41.00;36.50;23.50
69746;PMS7003;57018;50.278;19.134;2023-12-20T13:17:16;44.50;38.00;26.00
69746;PMS7003;57018;50.278;19.134;2023-12-20T13:19:46;41.00;35.00;23.00
69746;PMS7003;57018;50.278;19.134;2023-12-20T13:22:16;54.00;42.00;27.00
69746;PMS7003;57018;50.278;19.134;2023-12-20T13:24:46;48.50;41.00;26.00
69746;PMS7003;57018;50.278;19.134;2023-12-20T13:27:18;63.00;49.00;33.00
69746;PMS7003;57018;50.278;19.134;2023-12-20T13:29:48;59.00;49.00;32.00
69746;PMS7003;57018;50.278;19.134;2023-12-20T13:32:18;59.00;48.50;32.00
69746;PMS7003;57018;50.278;19.134;2023-12-20T13:34:48;56.00;46.00;30.00
69746;PMS7003;57018;50.278;19.134;2023-12-20T13:37:18;58.00;45.50;29.00
69746;PMS7003;57018;50.278;19.134;2023-12-20T13:42:16;42.00;35.50;23.50
69746;PMS7003;57018;50.278;19.134;2023-12-20T13:44:47;51.00;42.00;26.67
69746;PMS7003;57018;50.278;19.134;2023-12-20T13:47:17;42.00;38.00;28.00
69746;PMS7003;57018;50.278;19.134;2023-12-20T13:49:49;54.00;43.00;29.00
69746;PMS7003;57018;50.278;19.134;2023-12-20T13:52:19;57.00;42.00;27.00
69746;PMS7003;57018;50.278;19.134;2023-12-20T13:54:49;59.00;47.50;30.50
69746;PMS7003;57018;50.278;19.134;2023-12-20T13:57:22;57.00;43.50;29.00
69746;PMS7003;57018;50.278;19.134;2023-12-20T13:59:51;54.00;47.00;32.00
69746;PMS7003;57018;50.278;19.134;2023-12-20T14:02:23;63.00;50.67;32.00
69746;PMS7003;57018;50.278;19.134;2023-12-20T14:04:54;67.00;51.00;31.00
69746;PMS7003;57018;50.278;19.134;2023-12-20T14:07:24;54.00;43.00;29.00
69746;PMS7003;57018;50.278;19.134;2023-12-20T14:09:56;59.33;48.67;31.33
69746;PMS7003;57018;50.278;19.134;2023-12-20T14:12:26;60.00;47.67;31.33